East Oolitic, Indiana
Current Conditions -  °F | °C
As of 7:53 PM on Wednesday 26 Nov 2014 (Local Time) from KBMG Reporting Station
Overcast Overcast  
Wind Chill: 26°   Ceiling: 8500
Heat Index: 33°   Visibility: 10mi
Dew Point: 26°   Wind: 8mph
Humidity: 75%   Direction: 30°NNE
Pressure: 30.05"   Gusts: NA
Location:  38.8737°N, 86.4563°W
Report Text: KBMG 270053Z 03007KT 10SM OVC085 01/M03 A3005 RMK AO2 SLP182 T00061033
Loading
Personal Weather Stations






























Interactive Weather Map New forecast layout! Learn more

10-Day Weather Forecast

Advertisements
Track Severe Weather on mobile